createdAt,value
2023-05-17T00:01:51.760Z,39.33
2023-05-17T00:04:57.378Z,40.07
2023-05-17T00:08:03.500Z,39.67
2023-05-17T00:11:08.855Z,39.69
2023-05-17T00:14:14.407Z,39.83
2023-05-17T00:17:14.436Z,39.82
2023-05-17T00:20:19.888Z,40.21
2023-05-17T00:23:24.953Z,39.96
2023-05-17T00:26:30.020Z,40.27
2023-05-17T00:29:35.781Z,40.52
2023-05-17T00:32:43.299Z,40.30
2023-05-17T00:35:48.991Z,40.49
2023-05-17T00:38:55.576Z,40.25
2023-05-17T00:41:54.793Z,40.15
2023-05-17T00:45:01.357Z,40.16
2023-05-17T00:48:07.293Z,39.54
2023-05-17T00:51:14.869Z,39.68
2023-05-17T00:54:13.654Z,39.92
2023-05-17T00:57:19.474Z,39.83
2023-05-17T01:00:25.252Z,39.71
2023-05-17T01:03:30.690Z,39.47
2023-05-17T01:06:37.367Z,39.51
2023-05-17T01:09:42.858Z,40.05
2023-05-17T01:13:02.419Z,40.14
2023-05-17T01:16:26.441Z,39.89
2023-05-17T01:20:12.684Z,40.15
2023-05-17T01:23:38.424Z,40.16
2023-05-17T01:26:54.960Z,39.86
2023-05-17T01:30:00.973Z,40.18
2023-05-17T01:33:07.683Z,40.04
2023-05-17T01:36:13.266Z,40.15
2023-05-17T01:39:19.887Z,40.25
2023-05-17T01:42:40.524Z,40.34
2023-05-17T01:45:49.548Z,40.81
2023-05-17T01:48:51.115Z,41.01
2023-05-17T01:52:32.682Z,41.06
2023-05-17T01:56:08.373Z,41.21
2023-05-17T01:59:13.994Z,41.18
2023-05-17T02:02:20.867Z,41.08
2023-05-17T02:05:26.428Z,41.04
2023-05-17T02:08:33.268Z,40.73
2023-05-17T02:11:39.776Z,40.64
2023-05-17T02:14:46.066Z,40.49
2023-05-17T02:17:51.753Z,40.59
2023-05-17T02:20:58.210Z,40.67
2023-05-17T02:24:04.105Z,40.99
2023-05-17T02:27:10.837Z,40.81
2023-05-17T02:30:18.060Z,41.11
2023-05-17T02:33:23.415Z,41.24
2023-05-17T02:36:29.519Z,41.10
2023-05-17T02:39:36.613Z,40.27
2023-05-17T02:42:42.266Z,39.82
2023-05-17T02:45:48.037Z,39.62
2023-05-17T02:48:54.953Z,39.54
2023-05-17T02:52:01.492Z,39.75
2023-05-17T02:55:07.254Z,39.69
2023-05-17T02:58:13.167Z,39.32
2023-05-17T03:01:18.495Z,39.40
2023-05-17T03:04:26.562Z,39.46
2023-05-17T03:07:31.534Z,39.88
2023-05-17T03:10:37.577Z,40.13
2023-05-17T03:13:43.609Z,39.97
2023-05-17T03:16:52.331Z,39.86
2023-05-17T03:19:58.705Z,39.95
2023-05-17T03:23:04.407Z,39.59
2023-05-17T03:26:13.387Z,39.35
2023-05-17T03:29:21.878Z,39.23
2023-05-17T03:32:27.555Z,39.23
2023-05-17T03:35:32.984Z,39.45
2023-05-17T03:38:38.480Z,38.94
2023-05-17T03:41:43.989Z,39.00
2023-05-17T03:44:49.602Z,39.07
2023-05-17T03:47:57.968Z,38.54
2023-05-17T03:51:03.600Z,38.44
2023-05-17T03:54:13.788Z,38.32
2023-05-17T03:57:19.612Z,38.20
2023-05-17T04:00:30.157Z,38.04
2023-05-17T04:03:37.406Z,37.53
2023-05-17T04:06:43.019Z,37.40
2023-05-17T04:09:48.889Z,37.29
2023-05-17T04:12:55.213Z,37.47
2023-05-17T04:15:53.243Z,36.99
2023-05-17T04:18:41.236Z,36.71
2023-05-17T04:21:34.922Z,35.74
2023-05-17T04:24:26.863Z,36.04
2023-05-17T04:27:32.912Z,36.21
2023-05-17T04:30:37.934Z,35.87
2023-05-17T04:33:44.342Z,36.58
2023-05-17T04:36:49.050Z,37.12
2023-05-17T04:39:55.298Z,36.48
2023-05-17T04:43:02.180Z,36.40
2023-05-17T04:46:14.018Z,35.71
2023-05-17T04:49:19.617Z,35.87
2023-05-17T04:52:26.289Z,35.48
2023-05-17T04:55:31.816Z,34.90
2023-05-17T04:58:38.816Z,34.67
2023-05-17T05:01:43.935Z,34.21
2023-05-17T05:04:49.039Z,33.52
2023-05-17T05:07:55.645Z,33.87
2023-05-17T05:11:01.505Z,34.06
2023-05-17T05:14:11.833Z,32.90
2023-05-17T05:17:17.115Z,33.09
2023-05-17T05:20:23.774Z,34.17
2023-05-17T05:23:30.286Z,33.78
2023-05-17T05:26:36.552Z,33.65
2023-05-17T05:29:42.196Z,33.69
2023-05-17T05:32:48.517Z,33.84
2023-05-17T05:35:55.257Z,34.46
2023-05-17T05:39:01.129Z,34.74
2023-05-17T05:42:05.883Z,35.44
2023-05-17T05:45:10.928Z,34.68
2023-05-17T05:48:18.591Z,34.35
2023-05-17T05:51:24.005Z,33.07
2023-05-17T05:54:29.535Z,33.51
2023-05-17T05:57:35.000Z,33.63
2023-05-17T06:00:42.059Z,32.22
2023-05-17T06:03:47.389Z,32.26
2023-05-17T06:06:54.091Z,33.23
2023-05-17T06:10:01.019Z,32.70
2023-05-17T06:13:06.184Z,30.58
2023-05-17T06:16:12.541Z,30.17
2023-05-17T06:19:18.691Z,29.76
2023-05-17T06:22:23.815Z,28.57
2023-05-17T06:25:28.223Z,27.98
2023-05-17T06:28:34.562Z,27.67
2023-05-17T06:31:40.309Z,27.01
2023-05-17T06:34:46.630Z,27.45
2023-05-17T06:37:46.777Z,27.19
2023-05-17T06:40:32.430Z,26.47
2023-05-17T06:43:25.828Z,26.28
2023-05-17T06:46:18.272Z,26.84
2023-05-17T06:49:24.356Z,24.72
2023-05-17T06:52:29.078Z,24.69
2023-05-17T06:55:34.040Z,24.54
2023-05-17T06:58:42.112Z,25.47
2023-05-17T07:01:47.855Z,25.62
2023-05-17T07:04:53.515Z,25.75
2023-05-17T07:07:59.186Z,25.40
2023-05-17T07:11:07.724Z,25.73
2023-05-17T07:14:14.162Z,25.00
2023-05-17T07:17:20.076Z,24.56
2023-05-17T07:20:27.003Z,24.89
2023-05-17T07:23:33.479Z,25.64
2023-05-17T07:26:38.783Z,24.66
2023-05-17T07:29:44.786Z,24.80
2023-05-17T07:32:44.397Z,24.57
2023-05-17T07:35:49.790Z,24.99
2023-05-17T07:38:56.650Z,24.31
2023-05-17T07:42:04.568Z,24.84
2023-05-17T07:45:09.641Z,25.57
2023-05-17T07:48:16.391Z,25.52
2023-05-17T07:51:22.891Z,24.56
2023-05-17T07:54:39.681Z,25.34
2023-05-17T07:57:45.437Z,24.19
2023-05-17T08:00:51.953Z,23.06
2023-05-17T08:03:57.588Z,23.14
2023-05-17T08:20:43.027Z,21.37
2023-05-17T08:23:49.309Z,21.42
2023-05-17T08:26:54.966Z,21.08
2023-05-17T08:30:05.370Z,22.07
2023-05-17T08:33:11.580Z,21.07
2023-05-17T08:36:17.003Z,21.27
2023-05-17T08:39:23.072Z,21.54
2023-05-17T08:42:27.729Z,20.96
2023-05-17T08:45:34.122Z,22.75
2023-05-17T08:48:45.073Z,22.19
2023-05-17T08:51:51.822Z,21.99
2023-05-17T08:54:57.823Z,21.66
2023-05-17T08:58:02.806Z,21.16
2023-05-17T09:01:09.191Z,21.62
2023-05-17T09:04:14.979Z,22.24
2023-05-17T09:07:19.951Z,21.84
2023-05-17T09:10:26.118Z,21.48
2023-05-17T09:13:33.057Z,21.94
2023-05-17T09:16:38.510Z,22.16
2023-05-17T09:19:44.517Z,21.37
2023-05-17T09:22:53.557Z,21.79
2023-05-17T09:26:05.130Z,21.56
2023-05-17T09:29:11.063Z,20.31
2023-05-17T09:32:34.886Z,18.84
2023-05-17T09:35:49.350Z,19.52
2023-05-17T09:38:56.003Z,20.15
2023-05-17T09:42:02.688Z,19.52
2023-05-17T09:45:10.787Z,19.83
2023-05-17T09:48:29.921Z,21.03
2023-05-17T09:51:48.957Z,19.60
2023-05-17T09:54:54.824Z,19.39
2023-05-17T09:58:00.626Z,19.73
2023-05-17T10:01:16.920Z,20.28
2023-05-17T10:04:24.644Z,20.58
2023-05-17T10:07:33.571Z,21.28
2023-05-17T10:10:39.790Z,20.92
2023-05-17T10:14:01.856Z,20.81
2023-05-17T10:17:06.844Z,21.76
2023-05-17T10:20:14.407Z,22.38
2023-05-17T10:23:20.165Z,21.04
2023-05-17T10:26:26.629Z,21.98
2023-05-17T10:29:31.980Z,21.86
2023-05-17T10:32:37.727Z,21.00
2023-05-17T10:35:43.274Z,20.31
2023-05-17T10:38:48.850Z,21.43
2023-05-17T10:42:10.768Z,21.46
2023-05-17T10:45:08.044Z,19.88
2023-05-17T10:48:14.386Z,20.51
2023-05-17T10:51:24.957Z,21.13
2023-05-17T10:54:30.925Z,21.41
2023-05-17T10:57:50.625Z,21.71
2023-05-17T11:00:56.174Z,21.94
2023-05-17T11:04:02.633Z,22.94
2023-05-17T11:07:11.653Z,22.51
2023-05-17T11:10:25.817Z,21.53
2023-05-17T11:13:43.648Z,21.90
2023-05-17T11:16:51.946Z,21.32
2023-05-17T11:20:27.233Z,21.87
2023-05-17T11:23:35.432Z,21.28
2023-05-17T11:26:49.061Z,21.87
2023-05-17T11:29:58.182Z,22.78
2023-05-17T11:33:21.225Z,21.29
2023-05-17T11:36:16.833Z,20.44
2023-05-17T11:39:30.696Z,20.87
2023-05-17T11:42:41.000Z,21.88
2023-05-17T11:45:58.955Z,21.50
2023-05-17T11:49:07.051Z,21.26
2023-05-17T11:52:12.962Z,21.41
2023-05-17T11:55:19.502Z,21.33
2023-05-17T11:58:27.352Z,21.10
2023-05-17T12:01:34.058Z,21.26
2023-05-17T12:04:41.757Z,21.38
2023-05-17T12:07:42.464Z,21.97
2023-05-17T12:10:48.732Z,22.58
2023-05-17T12:13:55.308Z,22.00
2023-05-17T12:17:05.458Z,22.16
2023-05-17T12:20:10.747Z,21.88
2023-05-17T12:23:16.322Z,22.40
2023-05-17T12:26:29.212Z,21.79
2023-05-17T12:29:36.206Z,22.05
2023-05-17T12:32:42.151Z,22.56
2023-05-17T12:35:48.189Z,22.62
2023-05-17T12:38:57.872Z,22.57
2023-05-17T12:42:04.422Z,23.52
2023-05-17T12:45:09.572Z,23.80
2023-05-17T12:48:15.299Z,24.45
2023-05-17T12:51:31.183Z,23.62
2023-05-17T12:54:42.031Z,24.11
2023-05-17T12:57:47.320Z,24.78
2023-05-17T13:00:53.471Z,23.97
2023-05-17T13:04:02.206Z,23.68
2023-05-17T13:07:10.921Z,23.74
2023-05-17T13:10:18.161Z,24.11
2023-05-17T13:13:24.109Z,23.84
2023-05-17T13:16:29.780Z,24.57
2023-05-17T13:19:45.697Z,24.62
2023-05-17T13:22:57.252Z,24.57
2023-05-17T13:26:03.623Z,25.19
2023-05-17T13:29:10.309Z,24.25
2023-05-17T13:32:15.800Z,24.50
2023-05-17T13:35:23.398Z,23.48
2023-05-17T13:38:29.411Z,24.76
2023-05-17T13:41:35.117Z,24.84
2023-05-17T13:44:41.768Z,24.44
2023-05-17T13:47:47.743Z,24.32
2023-05-17T13:50:54.350Z,23.85
2023-05-17T13:54:01.493Z,23.56
2023-05-17T13:57:09.408Z,24.25
2023-05-17T14:00:15.950Z,24.45
2023-05-17T14:03:15.205Z,24.69
2023-05-17T14:06:21.685Z,24.76
2023-05-17T14:09:28.512Z,24.12
2023-05-17T14:12:34.328Z,23.56
2023-05-17T14:15:45.285Z,23.77
2023-05-17T14:18:52.988Z,23.81
2023-05-17T14:21:59.316Z,23.80
2023-05-17T14:25:05.176Z,23.77
2023-05-17T14:28:12.090Z,23.97
2023-05-17T14:31:18.195Z,24.24
2023-05-17T14:34:24.590Z,23.88
2023-05-17T14:37:30.687Z,24.66
2023-05-17T14:40:37.315Z,24.30
2023-05-17T14:43:42.867Z,24.42
2023-05-17T14:46:47.695Z,24.41
2023-05-17T14:49:53.848Z,23.76
2023-05-17T14:53:01.607Z,23.55
2023-05-17T14:56:07.452Z,23.77
2023-05-17T14:59:13.481Z,24.37
2023-05-17T15:02:22.729Z,24.04
2023-05-17T15:05:28.938Z,24.50
2023-05-17T15:08:35.340Z,24.45
2023-05-17T15:11:41.378Z,24.08
2023-05-17T15:14:46.994Z,24.58
2023-05-17T15:17:53.078Z,25.69
2023-05-17T15:20:59.935Z,25.56
2023-05-17T15:24:06.785Z,25.50
2023-05-17T15:27:13.266Z,25.62
2023-05-17T15:30:19.948Z,25.79
2023-05-17T15:33:26.790Z,25.83
2023-05-17T15:36:32.492Z,24.91
2023-05-17T15:39:39.424Z,25.36
2023-05-17T15:42:45.342Z,25.31
2023-05-17T15:45:51.304Z,25.74
2023-05-17T15:48:57.790Z,25.76
2023-05-17T15:52:03.224Z,25.55
2023-05-17T15:55:09.110Z,25.81
2023-05-17T15:58:15.960Z,26.12
2023-05-17T16:01:22.720Z,26.35
2023-05-17T16:04:23.305Z,25.93
2023-05-17T16:07:09.413Z,26.17
2023-05-17T16:10:01.589Z,26.27
2023-05-17T16:12:56.153Z,26.42
2023-05-17T16:16:02.198Z,26.49
2023-05-17T16:19:08.337Z,26.58
2023-05-17T16:22:13.780Z,26.61
2023-05-17T16:25:19.652Z,26.48
2023-05-17T16:28:28.068Z,26.53
2023-05-17T16:31:33.837Z,26.80
2023-05-17T16:34:39.454Z,26.90
2023-05-17T16:37:45.799Z,27.04
2023-05-17T16:40:52.286Z,27.34
2023-05-17T16:43:57.540Z,27.18
2023-05-17T16:47:02.840Z,27.54
2023-05-17T16:50:09.755Z,27.81
2023-05-17T16:53:16.289Z,28.28
2023-05-17T16:56:22.481Z,28.51
2023-05-17T16:59:29.251Z,28.75
2023-05-17T17:02:34.880Z,29.17
2023-05-17T17:05:42.183Z,29.42
2023-05-17T17:08:47.044Z,29.68
2023-05-17T17:11:52.554Z,29.82
2023-05-17T17:14:58.353Z,29.89
2023-05-17T17:17:59.684Z,30.15
2023-05-17T17:20:45.505Z,30.42
2023-05-17T17:23:38.226Z,30.60
2023-05-17T17:26:36.702Z,30.73
2023-05-17T17:29:35.474Z,30.84
2023-05-17T17:32:35.107Z,30.89
2023-05-17T17:35:33.474Z,31.14
2023-05-17T17:38:20.409Z,31.34
2023-05-17T17:41:13.017Z,31.50
2023-05-17T17:43:58.855Z,31.48
2023-05-17T17:46:51.616Z,31.53
2023-05-17T17:49:37.493Z,31.67
2023-05-17T17:52:29.265Z,31.72
2023-05-17T17:55:17.379Z,31.56
2023-05-17T17:58:08.736Z,31.68
2023-05-17T18:01:01.536Z,31.71
2023-05-17T18:04:07.790Z,31.64
2023-05-17T18:07:13.531Z,31.70
2023-05-17T18:10:21.377Z,31.95
2023-05-17T18:13:26.870Z,32.14
2023-05-17T18:16:32.705Z,32.25
2023-05-17T18:19:38.576Z,32.26
2023-05-17T18:22:44.641Z,32.31
2023-05-17T18:25:50.096Z,32.60
2023-05-17T18:28:57.146Z,32.66
2023-05-17T18:32:05.367Z,32.75
2023-05-17T18:35:11.188Z,32.99
2023-05-17T18:38:17.084Z,33.21
2023-05-17T18:41:22.939Z,33.48
2023-05-17T18:44:27.862Z,33.64
2023-05-17T18:47:34.621Z,34.00
2023-05-17T18:50:41.446Z,34.24
2023-05-17T18:53:48.276Z,34.68
2023-05-17T18:56:54.268Z,34.73
2023-05-17T19:00:00.507Z,35.28
2023-05-17T19:03:07.320Z,35.53
2023-05-17T19:06:12.820Z,35.75
2023-05-17T19:09:18.421Z,35.75
2023-05-17T19:12:24.170Z,35.53
2023-05-17T19:15:30.352Z,35.63
2023-05-17T19:18:35.678Z,35.64
2023-05-17T19:21:42.020Z,35.85
2023-05-17T19:24:48.012Z,35.95
2023-05-17T19:27:54.296Z,36.24
2023-05-17T19:31:00.970Z,36.26
2023-05-17T19:34:08.182Z,36.41
2023-05-17T19:37:07.026Z,36.71
2023-05-17T19:39:53.028Z,36.70
2023-05-17T19:42:47.151Z,36.82
2023-05-17T19:45:53.422Z,36.71
2023-05-17T19:48:59.760Z,36.79
2023-05-17T19:52:07.695Z,36.95
2023-05-17T19:55:13.046Z,37.08
2023-05-17T19:58:19.453Z,37.13
2023-05-17T20:01:25.125Z,37.23
2023-05-17T20:04:30.543Z,37.27
2023-05-17T20:07:35.803Z,37.18
2023-05-17T20:10:40.386Z,37.07
2023-05-17T20:13:47.167Z,37.01
2023-05-17T20:16:53.948Z,36.94
2023-05-17T20:20:00.629Z,36.89
2023-05-17T20:23:07.217Z,37.02
2023-05-17T20:26:13.971Z,37.06
2023-05-17T20:29:20.595Z,37.22
2023-05-17T20:32:25.598Z,37.54
2023-05-17T20:35:31.336Z,37.56
2023-05-17T20:38:36.868Z,37.74
2023-05-17T20:41:43.219Z,38.03
2023-05-17T20:44:50.165Z,38.28
2023-05-17T20:47:57.998Z,38.32
2023-05-17T20:51:03.768Z,38.38
2023-05-17T20:54:08.891Z,38.60
2023-05-17T20:57:08.475Z,38.44
2023-05-17T21:00:01.772Z,38.73
2023-05-17T21:03:08.829Z,38.70
2023-05-17T21:06:15.291Z,38.75
2023-05-17T21:09:20.431Z,39.04
2023-05-17T21:12:27.567Z,38.88
2023-05-17T21:15:34.436Z,38.74
2023-05-17T21:18:41.280Z,38.53
2023-05-17T21:21:47.047Z,38.36
2023-05-17T21:24:53.237Z,38.51
2023-05-17T21:27:59.706Z,38.56
2023-05-17T21:31:07.545Z,38.50
2023-05-17T21:34:06.492Z,38.40
2023-05-17T21:37:07.453Z,38.30
2023-05-17T21:40:13.987Z,38.29
2023-05-17T21:43:19.179Z,38.05
2023-05-17T21:46:24.075Z,38.10
2023-05-17T21:49:29.307Z,38.05
2023-05-17T21:52:34.571Z,38.08
2023-05-17T21:55:56.329Z,38.19
2023-05-17T21:58:46.840Z,38.11
2023-05-17T22:01:53.325Z,38.23
2023-05-17T22:04:59.682Z,37.99
2023-05-17T22:08:06.629Z,38.28
2023-05-17T22:11:13.229Z,38.45
2023-05-17T22:14:19.857Z,38.35
2023-05-17T22:17:27.513Z,38.43
2023-05-17T22:20:34.473Z,38.76
2023-05-17T22:23:40.080Z,38.98
2023-05-17T22:26:45.587Z,39.26
2023-05-17T22:29:51.339Z,39.38
2023-05-17T22:32:59.956Z,39.40
2023-05-17T22:36:06.291Z,39.70
2023-05-17T22:39:12.509Z,39.82
2023-05-17T22:42:18.054Z,39.99
2023-05-17T22:45:25.422Z,40.13
2023-05-17T22:48:31.000Z,40.23
2023-05-17T22:51:37.269Z,40.25
2023-05-17T22:54:42.776Z,40.36
2023-05-17T22:57:48.220Z,40.39
2023-05-17T23:00:57.444Z,40.50
2023-05-17T23:04:02.947Z,40.42
2023-05-17T23:07:10.378Z,40.43
2023-05-17T23:10:17.747Z,40.51
2023-05-17T23:13:25.155Z,40.50
2023-05-17T23:16:32.964Z,40.55
2023-05-17T23:19:38.719Z,40.57
2023-05-17T23:22:43.625Z,40.63
2023-05-17T23:25:42.574Z,40.92
2023-05-17T23:28:48.443Z,41.01
2023-05-17T23:31:55.149Z,41.10
2023-05-17T23:35:04.082Z,41.16
2023-05-17T23:38:10.862Z,41.29
2023-05-17T23:41:17.851Z,41.71
2023-05-17T23:44:24.610Z,41.45
2023-05-17T23:47:30.199Z,41.77
2023-05-17T23:50:37.397Z,41.82
2023-05-17T23:53:44.713Z,41.98
2023-05-17T23:56:43.918Z,42.13
2023-05-17T23:59:50.867Z,42.23
